EDQZ weather

Pegnitz-Zipser Berg Airport
Pegnitz, Bavaria, Germany

Public forecast

Using degrees Celsius for public forecast. Weather courtesy of forecast.io.

METAR (pilot weather report)

Closest report is Grafenwohr Army Air Field, 14.7 nm (27.2 km) ESE. Retrieved 2019/07/21 17:56 UTC (25 minutes ago):

ETIC 211756Z AUTO 28005KT 9999 CLR 26/11 A3017 RMK AO2 SLP202 T02560106 10269 20223 52008 $

TAF (pilot weather forecast)

Closest forecast is Grafenwohr Army Air Field, 14.7 nm (27.2 km) ESE. Retrieved 2019/07/21 14:05 UTC (4 hours ago):

TAF ETIC 211400Z 2114/2220 29009KT 9000 -SHRA FEW050 QNH3017INS TEMPO 2114/2118 9000 -TSRA BKN050CB BECMG 2117/2118 28009KT 9999 NSW BKN060 QNH3019INS BECMG 2121/2122 VRB06KT 9999 SCT050 QNH3024INS BECMG 2208/2209 VRB06KT 9999 FEW040 BKN180 QNH3027INS TX25/2115Z TN13/2202Z